Time;durP1;ratioP1;P1;durP2;ratioP2;P2;SDS_P1;SDS_P2;PMS_P1;PMS_P2;Temp;Humidity;BMP_temperature;BMP_pressure;BME280_temperature;BME280_humidity;BME280_pressure;Samples;Min_cycle;Max_cycle;Signal;HPM_P1;HPM_P2
2022/06/13 00:00:02;;;;;;;;;;;17.80;76.00;;;;;;5041837;27;87838;-45
2022/06/13 00:02:28;;;;;;;;;;;17.80;76.00;;;;;;5041040;28;89159;-46
2022/06/13 00:04:53;;;;;;;;;;;17.80;76.10;;;;;;5041990;27;87084;-45
2022/06/13 00:07:19;;;;;;;;;;;17.80;75.90;;;;;;5047569;28;86975;-44
2022/06/13 00:09:44;;;;;;;;;;;17.80;76.00;;;;;;5045645;28;87112;-45
2022/06/13 00:12:10;;;;;;;;;;;17.70;76.00;;;;;;5045158;28;87515;-44
2022/06/13 00:14:35;;;;;;;;;;;17.70;75.90;;;;;;5045035;28;88245;-47
2022/06/13 00:17:01;;;;;;;;;;;17.70;76.00;;;;;;5045591;28;87149;-47
2022/06/13 00:19:26;;;;;;;;;;;17.80;75.90;;;;;;5045709;27;87411;-47
2022/06/13 00:21:52;;;;;;;;;;;17.70;75.90;;;;;;5045181;28;87290;-45
2022/06/13 00:24:17;;;;;;;;;;;17.70;75.90;;;;;;5045253;28;87069;-46
2022/06/13 00:26:43;;;;;;;;;;;17.70;76.00;;;;;;5044910;28;88018;-46
2022/06/13 00:29:08;;;;;;;;;;;17.70;75.90;;;;;;5047964;28;88182;-45
2022/06/13 00:31:34;;;;;;;;;;;17.70;75.90;;;;;;5045368;28;87499;-46
2022/06/13 00:33:59;;;;;;;;;;;17.70;75.90;;;;;;5044629;28;87920;-46
2022/06/13 00:36:25;;;;;;;;;;;17.70;75.80;;;;;;5045038;28;87130;-48
2022/06/13 00:38:51;;;;;;;;;;;17.70;75.80;;;;;;5045163;28;87504;-46
2022/06/13 00:41:23;;;;;;;;;;;17.70;76.00;;;;;;5044982;28;88068;-45
2022/06/13 00:43:50;;;;;;;;;;;17.70;76.20;;;;;;5045648;28;87896;-46
2022/06/13 00:46:16;;;;;;;;;;;17.60;76.10;;;;;;5045106;27;86959;-48
2022/06/13 00:48:41;;;;;;;;;;;17.60;76.10;;;;;;5043923;28;89528;-46
2022/06/13 00:51:08;;;;;;;;;;;17.60;76.00;;;;;;5047361;28;88079;-47
2022/06/13 00:53:35;;;;;;;;;;;17.60;76.20;;;;;;5044419;28;87167;-47
2022/06/13 00:56:11;;;;;;;;;;;17.60;76.00;;;;;;5044893;28;86923;-45
2022/06/13 00:58:43;;;;;;;;;;;17.60;76.20;;;;;;5044686;27;87325;-44
2022/06/13 01:01:08;;;;;;;;;;;17.60;76.10;;;;;;5044443;28;89465;-47
2022/06/13 01:03:34;;;;;;;;;;;17.60;76.00;;;;;;5044308;28;88232;-47
2022/06/13 01:06:01;;;;;;;;;;;17.60;76.00;;;;;;5044944;27;87492;-45
2022/06/13 01:08:28;;;;;;;;;;;17.60;76.10;;;;;;5044595;28;87572;-47
2022/06/13 01:14:04;;;;;;;;;;;17.60;76.00;;;;;;5044362;28;87280;-45
2022/06/13 01:16:29;;;;;;;;;;;17.50;76.10;;;;;;5043620;27;88433;-47
2022/06/13 01:19:01;;;;;;;;;;;17.50;76.00;;;;;;5044453;28;87443;-47
2022/06/13 01:21:45;;;;;;;;;;;17.50;76.20;;;;;;5043909;28;89436;-46
2022/06/13 01:24:19;;;;;;;;;;;17.50;76.10;;;;;;5044344;27;87496;-45
2022/06/13 01:27:03;;;;;;;;;;;17.50;76.10;;;;;;5044667;28;87298;-48
2022/06/13 01:29:47;;;;;;;;;;;17.50;76.00;;;;;;5044157;27;88028;-46
2022/06/13 01:32:19;;;;;;;;;;;17.50;76.10;;;;;;5044205;27;87238;-47
2022/06/13 01:34:50;;;;;;;;;;;17.50;76.30;;;;;;5047071;27;87354;-47
2022/06/13 01:37:19;;;;;;;;;;;17.40;76.20;;;;;;5044399;28;87006;-47
2022/06/13 01:39:50;;;;;;;;;;;17.50;76.20;;;;;;5044241;28;87397;-49
2022/06/13 01:42:25;;;;;;;;;;;17.40;76.20;;;;;;5043529;28;89182;-46
2022/06/13 01:45:09;;;;;;;;;;;17.50;76.30;;;;;;5044112;28;86944;-47
2022/06/13 01:47:43;;;;;;;;;;;17.40;76.30;;;;;;5044149;28;87438;-45
2022/06/13 01:50:14;;;;;;;;;;;17.40;76.30;;;;;;5043661;28;87990;-48
2022/06/13 01:52:39;;;;;;;;;;;17.40;76.10;;;;;;5043960;28;87030;-46
2022/06/13 01:55:08;;;;;;;;;;;17.40;76.10;;;;;;5043963;27;87418;-45
2022/06/13 01:57:33;;;;;;;;;;;17.50;75.90;;;;;;5046444;28;88144;-47
2022/06/13 02:00:11;;;;;;;;;;;17.50;76.00;;;;;;5043831;28;88112;-45
2022/06/13 02:02:45;;;;;;;;;;;17.40;76.00;;;;;;5043263;28;89515;-45
2022/06/13 02:05:11;;;;;;;;;;;17.40;76.10;;;;;;5043567;28;86891;-46
2022/06/13 02:07:39;;;;;;;;;;;17.40;76.00;;;;;;5043245;27;87923;-47
2022/06/13 02:10:14;;;;;;;;;;;17.40;76.20;;;;;;5043395;28;87958;-46
2022/06/13 02:12:40;;;;;;;;;;;17.40;76.10;;;;;;5043109;28;88080;-48
2022/06/13 02:15:07;;;;;;;;;;;17.40;76.00;;;;;;5043689;27;87355;-45
2022/06/13 02:17:37;;;;;;;;;;;17.40;76.10;;;;;;5043184;28;88160;-44
2022/06/13 02:20:06;;;;;;;;;;;17.40;76.00;;;;;;5046365;28;87103;-44
2022/06/13 02:22:40;;;;;;;;;;;17.30;76.20;;;;;;5042814;28;89784;-48
2022/06/13 02:25:24;;;;;;;;;;;17.30;76.40;;;;;;5043842;28;86354;-45
2022/06/13 02:27:51;;;;;;;;;;;17.30;76.40;;;;;;5043458;27;87017;-46
2022/06/13 02:30:18;;;;;;;;;;;17.40;76.10;;;;;;5042536;28;87947;-47
2022/06/13 02:32:56;;;;;;;;;;;17.30;76.10;;;;;;5042717;28;88157;-45
2022/06/13 02:35:28;;;;;;;;;;;17.40;76.20;;;;;;5043161;27;88356;-48
2022/06/13 02:37:57;;;;;;;;;;;17.30;76.10;;;;;;5043013;28;88161;-47
2022/06/13 02:40:25;;;;;;;;;;;17.30;76.10;;;;;;5043043;28;87111;-45
2022/06/13 02:43:03;;;;;;;;;;;17.30;76.20;;;;;;5045852;28;87495;-45
2022/06/13 02:45:30;;;;;;;;;;;17.30;76.00;;;;;;5042937;28;87104;-46
2022/06/13 02:47:59;;;;;;;;;;;17.40;75.80;;;;;;5042908;27;87155;-45
2022/06/13 02:50:42;;;;;;;;;;;17.30;76.40;;;;;;5043197;28;87258;-46
2022/06/13 02:53:15;;;;;;;;;;;17.30;75.80;;;;;;5043097;28;87119;-48
2022/06/13 02:55:42;;;;;;;;;;;17.30;75.90;;;;;;5042969;27;87113;-47
2022/06/13 02:58:23;;;;;;;;;;;17.30;76.30;;;;;;5041866;28;89503;-46
2022/06/13 03:00:49;;;;;;;;;;;17.30;76.00;;;;;;5042636;28;86994;-46
2022/06/13 03:03:17;;;;;;;;;;;17.30;76.10;;;;;;5042992;28;87504;-47
2022/06/13 03:05:42;;;;;;;;;;;17.30;75.80;;;;;;5045490;28;87940;-45
2022/06/13 03:08:08;;;;;;;;;;;17.30;76.00;;;;;;5042786;28;86940;-46
2022/06/13 03:10:56;;;;;;;;;;;17.30;75.70;;;;;;5042477;28;87776;-45
2022/06/13 03:13:35;;;;;;;;;;;17.30;75.90;;;;;;5042672;27;87129;-45
2022/06/13 03:16:05;;;;;;;;;;;17.30;75.80;;;;;;5042992;28;87463;-46
2022/06/13 03:18:34;;;;;;;;;;;17.30;75.70;;;;;;5042189;28;88403;-45
2022/06/13 03:21:04;;;;;;;;;;;17.30;76.00;;;;;;5042537;28;87199;-48
2022/06/13 03:23:43;;;;;;;;;;;17.30;75.90;;;;;;5041781;27;87997;-47
2022/06/13 03:26:17;;;;;;;;;;;17.30;75.80;;;;;;5045326;28;89483;-47
2022/06/13 03:28:42;;;;;;;;;;;17.30;75.70;;;;;;5042720;27;87279;-47
2022/06/13 03:31:11;;;;;;;;;;;17.30;75.70;;;;;;5041884;28;88702;-46
2022/06/13 03:33:40;;;;;;;;;;;17.30;75.80;;;;;;5042249;28;88129;-46
2022/06/13 03:36:26;;;;;;;;;;;17.30;75.80;;;;;;5041984;27;87690;-45
2022/06/13 03:39:10;;;;;;;;;;;17.30;75.70;;;;;;5041687;28;88002;-47
2022/06/13 03:41:38;;;;;;;;;;;17.30;75.70;;;;;;5046141;27;86325;-45
2022/06/13 03:44:14;;;;;;;;;;;17.30;75.80;;;;;;5046172;27;87046;-45
2022/06/13 03:46:43;;;;;;;;;;;17.30;75.70;;;;;;5045603;28;88237;-46
2022/06/13 03:49:21;;;;;;;;;;;17.30;75.70;;;;;;5048002;28;88221;-47
2022/06/13 03:51:51;;;;;;;;;;;17.30;75.80;;;;;;5045455;28;88509;-46
2022/06/13 03:54:20;;;;;;;;;;;17.30;75.80;;;;;;5045638;28;86904;-47
2022/06/13 03:56:47;;;;;;;;;;;17.30;75.70;;;;;;5045819;28;87538;-47
2022/06/13 03:59:22;;;;;;;;;;;17.30;75.60;;;;;;5045195;28;88034;-45
2022/06/13 04:01:57;;;;;;;;;;;17.30;75.40;;;;;;5045620;28;87141;-45
2022/06/13 04:04:24;;;;;;;;;;;17.30;75.50;;;;;;5045495;28;87041;-45
2022/06/13 04:06:50;;;;;;;;;;;17.30;75.50;;;;;;5045756;28;87236;-46
2022/06/13 04:09:18;;;;;;;;;;;17.30;75.40;;;;;;5045635;28;87152;-45
2022/06/13 04:11:53;;;;;;;;;;;17.20;75.60;;;;;;5047367;27;88010;-45
2022/06/13 04:14:27;;;;;;;;;;;17.30;75.40;;;;;;5044493;28;88056;-47
2022/06/13 04:16:58;;;;;;;;;;;17.30;75.20;;;;;;5045566;27;88342;-47
2022/06/13 04:19:42;;;;;;;;;;;17.30;75.30;;;;;;5044974;28;87837;-45
2022/06/13 04:22:19;;;;;;;;;;;17.20;75.40;;;;;;5045278;28;87042;-46
2022/06/13 04:24:54;;;;;;;;;;;17.20;75.50;;;;;;5045434;28;87455;-45
2022/06/13 04:27:34;;;;;;;;;;;17.30;75.70;;;;;;5044704;28;87748;-45
2022/06/13 04:30:09;;;;;;;;;;;17.20;75.40;;;;;;5045205;28;86984;-45
2022/06/13 04:32:39;;;;;;;;;;;17.20;75.80;;;;;;5045367;27;88828;-46
2022/06/13 04:35:05;;;;;;;;;;;17.20;75.50;;;;;;5047663;28;88075;-46
2022/06/13 04:37:30;;;;;;;;;;;17.20;75.60;;;;;;5045452;27;87509;-47
2022/06/13 04:40:01;;;;;;;;;;;17.20;75.90;;;;;;5043763;28;90313;-45
2022/06/13 04:42:30;;;;;;;;;;;17.20;75.80;;;;;;5045199;28;87004;-45
2022/06/13 04:44:59;;;;;;;;;;;17.20;75.70;;;;;;5044942;27;87401;-50
2022/06/13 04:47:24;;;;;;;;;;;17.20;75.90;;;;;;5044641;28;88017;-47
2022/06/13 04:49:54;;;;;;;;;;;17.20;75.80;;;;;;5044863;28;87058;-47
2022/06/13 04:52:23;;;;;;;;;;;17.20;75.80;;;;;;5044287;27;87222;-48
2022/06/13 04:55:01;;;;;;;;;;;17.20;75.50;;;;;;5044148;28;89588;-47
2022/06/13 04:57:27;;;;;;;;;;;17.20;75.50;;;;;;5048052;28;86345;-48
2022/06/13 04:59:53;;;;;;;;;;;17.30;75.70;;;;;;5044308;28;88014;-48
2022/06/13 05:02:20;;;;;;;;;;;17.30;75.50;;;;;;5044791;28;86997;-46
2022/06/13 05:04:46;;;;;;;;;;;17.30;75.60;;;;;;5044180;27;87821;-46
2022/06/13 05:07:13;;;;;;;;;;;17.30;75.60;;;;;;5044349;28;87698;-47
2022/06/13 05:09:50;;;;;;;;;;;17.20;75.50;;;;;;5044632;28;87134;-47
2022/06/13 05:12:19;;;;;;;;;;;17.30;75.70;;;;;;5043741;27;90571;-48
2022/06/13 05:14:51;;;;;;;;;;;17.30;75.30;;;;;;5044069;28;88008;-45
2022/06/13 05:17:22;;;;;;;;;;;17.30;75.50;;;;;;5044298;28;87123;-47
2022/06/13 05:19:59;;;;;;;;;;;17.30;75.60;;;;;;5046974;28;87415;-45
2022/06/13 05:22:24;;;;;;;;;;;17.30;75.40;;;;;;5045039;28;86155;-46
2022/06/13 05:24:59;;;;;;;;;;;17.30;75.20;;;;;;5044434;28;87333;-49
2022/06/13 05:27:24;;;;;;;;;;;17.30;75.30;;;;;;5044008;28;87639;-47
2022/06/13 05:29:50;;;;;;;;;;;17.30;75.00;;;;;;5043575;28;88065;-48
2022/06/13 05:32:17;;;;;;;;;;;17.30;75.20;;;;;;5044175;27;90208;-47
2022/06/13 05:34:44;;;;;;;;;;;17.30;75.00;;;;;;5043733;28;87996;-47
2022/06/13 05:37:12;;;;;;;;;;;17.30;75.00;;;;;;5044019;28;87201;-47
2022/06/13 05:39:37;;;;;;;;;;;17.30;75.20;;;;;;5046716;27;87543;-47
2022/06/13 05:42:03;;;;;;;;;;;17.30;75.20;;;;;;5044004;28;87136;-47
2022/06/13 05:44:32;;;;;;;;;;;17.30;75.30;;;;;;5044143;27;87577;-47
2022/06/13 05:46:57;;;;;;;;;;;17.30;75.10;;;;;;5044256;28;87215;-47
2022/06/13 05:49:23;;;;;;;;;;;17.40;75.50;;;;;;5043942;28;87066;-49
2022/06/13 05:51:48;;;;;;;;;;;17.40;75.20;;;;;;5043955;28;87509;-49
2022/06/13 05:54:14;;;;;;;;;;;17.30;75.40;;;;;;5042695;28;88979;-48
2022/06/13 05:56:40;;;;;;;;;;;17.40;75.60;;;;;;5044092;28;87191;-50
2022/06/13 05:59:06;;;;;;;;;;;17.40;75.70;;;;;;5043786;27;87196;-47
2022/06/13 06:01:36;;;;;;;;;;;17.40;75.70;;;;;;5046502;28;87336;-47
2022/06/13 06:04:02;;;;;;;;;;;17.40;75.80;;;;;;5042477;28;87342;-48
2022/06/13 06:06:28;;;;;;;;;;;17.30;75.70;;;;;;5042080;28;89625;-47
2022/06/13 06:08:54;;;;;;;;;;;17.40;76.00;;;;;;5043460;28;87171;-51
2022/06/13 06:11:20;;;;;;;;;;;17.40;75.90;;;;;;5043541;27;86400;-46
2022/06/13 06:13:46;;;;;;;;;;;17.40;75.90;;;;;;5043310;28;88331;-47
2022/06/13 06:16:19;;;;;;;;;;;17.30;75.90;;;;;;5043571;28;87106;-46
2022/06/13 06:18:45;;;;;;;;;;;17.30;75.90;;;;;;5043082;27;87770;-47
2022/06/13 06:21:11;;;;;;;;;;;17.40;76.40;;;;;;5042818;28;87772;-48
2022/06/13 06:23:37;;;;;;;;;;;17.30;75.80;;;;;;5046473;28;87027;-45
2022/06/13 06:26:04;;;;;;;;;;;17.30;75.90;;;;;;5042931;28;88495;-49
2022/06/13 06:28:30;;;;;;;;;;;17.30;75.70;;;;;;5043316;28;87366;-48
2022/06/13 06:30:57;;;;;;;;;;;17.30;75.80;;;;;;5043054;27;90318;-45
2022/06/13 06:33:23;;;;;;;;;;;17.30;75.90;;;;;;5042767;28;89810;-49
2022/06/13 06:35:50;;;;;;;;;;;17.40;75.90;;;;;;5043509;28;86755;-48
2022/06/13 06:38:16;;;;;;;;;;;17.40;75.70;;;;;;5043173;27;88347;-46
2022/06/13 06:40:41;;;;;;;;;;;17.40;75.70;;;;;;5042910;28;87373;-46
2022/06/13 06:43:07;;;;;;;;;;;17.40;75.90;;;;;;5042577;28;88127;-48
2022/06/13 06:45:33;;;;;;;;;;;17.40;75.70;;;;;;5045773;27;88276;-48
2022/06/13 06:47:59;;;;;;;;;;;17.40;75.80;;;;;;5043098;28;87094;-47
2022/06/13 06:50:26;;;;;;;;;;;17.40;75.40;;;;;;5042696;27;87315;-47
2022/06/13 06:52:52;;;;;;;;;;;17.40;75.70;;;;;;5042676;28;87947;-46
2022/06/13 07:00:47;;;;;;;;;;;17.40;75.30;;;;;;5043179;28;86401;-47
2022/06/13 07:03:13;;;;;;;;;;;17.50;75.80;;;;;;5042642;28;86854;-48
2022/06/13 07:05:38;;;;;;;;;;;17.50;76.00;;;;;;5043139;28;87118;-48
2022/06/13 07:08:04;;;;;;;;;;;17.50;76.00;;;;;;5044869;28;88952;-50
2022/06/13 07:10:30;;;;;;;;;;;17.50;76.00;;;;;;5042782;27;88267;-46
2022/06/13 07:12:55;;;;;;;;;;;17.50;76.00;;;;;;5042058;28;88382;-47
2022/06/13 07:15:22;;;;;;;;;;;17.50;76.40;;;;;;5042150;28;86990;-51
2022/06/13 07:17:47;;;;;;;;;;;17.50;76.40;;;;;;5042668;27;87407;-45
2022/06/13 07:20:13;;;;;;;;;;;17.50;76.50;;;;;;5042449;28;88085;-51
2022/06/13 07:22:46;;;;;;;;;;;17.50;76.50;;;;;;5042553;28;87165;-51
2022/06/13 07:25:17;;;;;;;;;;;17.60;76.70;;;;;;5043085;27;87834;-49
2022/06/13 07:27:42;;;;;;;;;;;17.50;76.90;;;;;;5042211;28;88389;-45
2022/06/13 07:30:08;;;;;;;;;;;17.60;76.90;;;;;;5045339;28;86925;-46
2022/06/13 07:32:34;;;;;;;;;;;17.60;76.60;;;;;;5041518;28;90328;-47
2022/06/13 07:35:01;;;;;;;;;;;17.60;77.00;;;;;;5042432;28;87145;-49
2022/06/13 07:40:11;;;;;;;;;;;17.60;77.70;;;;;;5042338;28;87264;-48
2022/06/13 07:42:44;;;;;;;;;;;17.60;76.80;;;;;;5042070;28;87196;-51
2022/06/13 07:45:16;;;;;;;;;;;17.60;77.40;;;;;;5042486;27;87187;-48
2022/06/13 07:47:42;;;;;;;;;;;17.70;77.70;;;;;;5041955;28;88008;-49
2022/06/13 07:50:10;;;;;;;;;;;17.70;78.10;;;;;;5045268;28;86316;-48
2022/06/13 07:52:35;;;;;;;;;;;17.70;78.70;;;;;;5041995;28;87007;-50
2022/06/13 07:55:01;;;;;;;;;;;17.70;78.20;;;;;;5042408;28;87148;-45
2022/06/13 07:57:26;;;;;;;;;;;17.70;78.20;;;;;;5041658;28;88006;-48
2022/06/13 07:59:52;;;;;;;;;;;17.70;78.30;;;;;;5041988;28;88236;-46
2022/06/13 08:02:18;;;;;;;;;;;17.70;78.10;;;;;;5042180;28;87939;-45
2022/06/13 08:04:43;;;;;;;;;;;17.80;78.40;;;;;;5042368;28;87484;-48
2022/06/13 08:07:10;;;;;;;;;;;17.80;77.90;;;;;;5041653;28;88210;-45
2022/06/13 08:09:35;;;;;;;;;;;17.80;78.20;;;;;;5041836;28;87541;-47
2022/06/13 08:12:01;;;;;;;;;;;17.80;78.10;;;;;;5043829;27;91163;-50
2022/06/13 08:14:26;;;;;;;;;;;17.80;78.20;;;;;;5042567;27;86378;-46
2022/06/13 08:16:53;;;;;;;;;;;17.80;77.20;;;;;;5042005;28;86855;-46
2022/06/13 08:19:18;;;;;;;;;;;17.90;78.30;;;;;;5041683;28;87855;-45
2022/06/13 08:21:44;;;;;;;;;;;17.90;78.10;;;;;;5041379;28;87976;-47
2022/06/13 08:24:09;;;;;;;;;;;17.90;77.30;;;;;;5041719;27;88404;-48
2022/06/13 08:26:35;;;;;;;;;;;17.80;78.40;;;;;;5041525;27;87311;-45
2022/06/13 08:29:00;;;;;;;;;;;17.90;78.60;;;;;;5045388;28;87165;-46
2022/06/13 08:31:26;;;;;;;;;;;17.90;78.60;;;;;;5045078;27;89187;-47
2022/06/13 08:33:51;;;;;;;;;;;17.90;77.70;;;;;;5047753;28;87905;-46
2022/06/13 08:36:17;;;;;;;;;;;18.00;78.80;;;;;;5045101;27;88759;-47
2022/06/13 08:38:43;;;;;;;;;;;17.90;77.70;;;;;;5045492;28;86541;-46
2022/06/13 08:41:11;;;;;;;;;;;18.00;78.00;;;;;;5044947;28;87110;-45
2022/06/13 08:43:52;;;;;;;;;;;18.00;77.70;;;;;;5044874;27;87028;-47
2022/06/13 08:46:17;;;;;;;;;;;18.00;78.40;;;;;;5044110;28;88957;-46
2022/06/13 08:48:44;;;;;;;;;;;18.00;77.90;;;;;;5045378;28;87016;-45
2022/06/13 08:51:12;;;;;;;;;;;18.00;78.80;;;;;;5044558;27;89071;-47
2022/06/13 08:53:56;;;;;;;;;;;18.00;78.80;;;;;;5044544;28;87839;-47
2022/06/13 08:56:27;;;;;;;;;;;18.00;78.60;;;;;;5047776;28;87571;-47
2022/06/13 08:58:57;;;;;;;;;;;18.00;79.30;;;;;;5044294;28;90409;-48
2022/06/13 09:01:28;;;;;;;;;;;18.00;78.80;;;;;;5044636;28;87017;-46
2022/06/13 09:03:54;;;;;;;;;;;18.10;78.20;;;;;;5045085;27;88741;-46
2022/06/13 09:06:23;;;;;;;;;;;18.00;78.50;;;;;;5044147;28;87104;-48
2022/06/13 09:08:56;;;;;;;;;;;17.90;79.40;;;;;;5044578;28;87091;-48
2022/06/13 09:11:34;;;;;;;;;;;18.00;79.90;;;;;;5043562;27;88651;-48
2022/06/13 09:14:00;;;;;;;;;;;18.10;79.00;;;;;;5044361;28;87137;-45
2022/06/13 09:16:35;;;;;;;;;;;18.10;79.10;;;;;;5044656;28;87092;-46
2022/06/13 09:19:03;;;;;;;;;;;18.10;79.10;;;;;;5046904;27;89261;-47
2022/06/13 09:21:29;;;;;;;;;;;18.10;79.10;;;;;;5044276;28;87150;-45
2022/06/13 09:24:00;;;;;;;;;;;18.10;79.30;;;;;;5044282;28;87393;-48
2022/06/13 09:26:31;;;;;;;;;;;18.00;79.10;;;;;;5043935;28;88633;-47
2022/06/13 09:29:15;;;;;;;;;;;18.00;79.60;;;;;;5045071;28;86253;-48
2022/06/13 09:31:41;;;;;;;;;;;18.10;79.40;;;;;;5044447;27;87089;-46
2022/06/13 09:34:12;;;;;;;;;;;18.10;80.40;;;;;;5043981;28;87584;-45
2022/06/13 09:36:41;;;;;;;;;;;18.10;79.40;;;;;;5043789;28;87925;-48
2022/06/13 09:39:08;;;;;;;;;;;18.10;79.60;;;;;;5046419;27;88419;-47
2022/06/13 09:41:52;;;;;;;;;;;18.20;79.60;;;;;;5044036;28;86968;-46
2022/06/13 09:44:21;;;;;;;;;;;18.30;79.30;;;;;;5044235;27;87310;-47
2022/06/13 09:47:04;;;;;;;;;;;18.30;79.20;;;;;;5043932;28;88170;-47
2022/06/13 09:49:36;;;;;;;;;;;18.30;79.70;;;;;;5043538;28;87134;-48
2022/06/13 09:52:06;;;;;;;;;;;18.40;79.30;;;;;;5043887;27;87589;-45
2022/06/13 09:54:57;;;;;;;;;;;18.40;79.90;;;;;;5044072;28;87354;-47
2022/06/13 09:57:42;;;;;;;;;;;18.40;79.90;;;;;;5044100;28;87076;-47
2022/06/13 10:00:22;;;;;;;;;;;18.40;79.90;;;;;;5043961;27;87385;-47
2022/06/13 10:03:00;;;;;;;;;;;18.40;79.70;;;;;;5045593;28;88816;-49
2022/06/13 10:05:26;;;;;;;;;;;18.40;79.50;;;;;;5043714;28;88533;-47
2022/06/13 10:07:51;;;;;;;;;;;18.40;79.20;;;;;;5043520;28;87906;-47
2022/06/13 10:10:20;;;;;;;;;;;18.50;79.60;;;;;;5043752;28;86903;-50
2022/06/13 10:13:04;;;;;;;;;;;18.50;79.20;;;;;;5043522;28;87588;-50
2022/06/13 10:15:48;;;;;;;;;;;18.60;79.40;;;;;;5042868;27;87136;-47
2022/06/13 10:18:35;;;;;;;;;;;18.60;78.90;;;;;;5043759;27;87237;-47
2022/06/13 10:21:08;;;;;;;;;;;18.60;79.20;;;;;;5044122;27;87249;-48
2022/06/13 10:23:40;;;;;;;;;;;18.60;79.30;;;;;;5043017;28;88033;-47
2022/06/13 10:26:15;;;;;;;;;;;18.60;79.80;;;;;;5046569;28;87022;-48
2022/06/13 10:29:00;;;;;;;;;;;18.60;79.30;;;;;;5042511;28;88166;-47
2022/06/13 10:31:40;;;;;;;;;;;18.70;79.80;;;;;;5042545;28;87150;-46
2022/06/13 10:34:21;;;;;;;;;;;18.70;79.70;;;;;;5043133;27;87879;-47
2022/06/13 10:36:54;;;;;;;;;;;18.70;79.90;;;;;;5042920;28;89413;-46
2022/06/13 10:39:21;;;;;;;;;;;18.80;79.10;;;;;;5043374;28;87111;-49
2022/06/13 10:41:48;;;;;;;;;;;18.80;79.40;;;;;;5043401;27;87391;-45
2022/06/13 10:44:15;;;;;;;;;;;18.90;79.20;;;;;;5042562;28;87205;-46
2022/06/13 10:47:01;;;;;;;;;;;18.90;79.20;;;;;;5043414;28;86374;-47
2022/06/13 10:49:31;;;;;;;;;;;19.00;78.70;;;;;;5045055;27;87244;-47
2022/06/13 10:51:59;;;;;;;;;;;19.00;78.70;;;;;;5042948;28;87525;-47
2022/06/13 10:54:29;;;;;;;;;;;19.00;79.10;;;;;;5042263;27;87989;-47
2022/06/13 10:57:01;;;;;;;;;;;19.00;79.00;;;;;;5042695;28;88161;-49
2022/06/13 10:59:28;;;;;;;;;;;19.10;78.80;;;;;;5042741;28;86994;-47
2022/06/13 11:01:58;;;;;;;;;;;19.10;78.90;;;;;;5042994;27;87409;-46
2022/06/13 11:04:24;;;;;;;;;;;19.10;78.80;;;;;;5042416;28;87997;-48
2022/06/13 11:06:54;;;;;;;;;;;19.10;78.50;;;;;;5042901;28;87403;-48
2022/06/13 11:09:26;;;;;;;;;;;19.20;78.60;;;;;;5042931;27;87190;-46
2022/06/13 11:11:57;;;;;;;;;;;19.10;78.60;;;;;;5045552;28;87386;-46
2022/06/13 11:14:27;;;;;;;;;;;19.20;78.70;;;;;;5043127;27;87171;-47
2022/06/13 11:22:37;;;;;;;;;;;19.30;78.60;;;;;;5043244;28;88098;-46
2022/06/13 11:25:12;;;;;;;;;;;19.30;78.60;;;;;;5042470;28;87967;-48
2022/06/13 11:27:42;;;;;;;;;;;19.30;78.40;;;;;;5042772;28;87299;-47
2022/06/13 11:30:16;;;;;;;;;;;19.40;78.40;;;;;;5042344;28;87467;-48
2022/06/13 11:32:54;;;;;;;;;;;19.40;78.40;;;;;;5042092;28;88223;-46
2022/06/13 11:35:46;;;;;;;;;;;19.40;78.40;;;;;;5045537;28;87137;-46
2022/06/13 11:38:27;;;;;;;;;;;19.40;78.20;;;;;;5040282;28;87496;-48
2022/06/13 11:40:58;;;;;;;;;;;19.40;78.10;;;;;;5042203;28;87033;-46
2022/06/13 11:43:33;;;;;;;;;;;19.50;78.10;;;;;;5042524;28;87561;-45
2022/06/13 11:46:01;;;;;;;;;;;19.50;78.30;;;;;;5041433;28;88992;-45
2022/06/13 11:48:28;;;;;;;;;;;19.50;78.10;;;;;;5042410;28;87131;-48
2022/06/13 11:50:55;;;;;;;;;;;19.60;78.10;;;;;;5041805;27;88959;-47
2022/06/13 11:53:36;;;;;;;;;;;19.60;77.90;;;;;;5041858;28;87840;-45
2022/06/13 11:56:03;;;;;;;;;;;19.60;78.00;;;;;;5045455;28;86813;-47
2022/06/13 11:58:31;;;;;;;;;;;19.60;77.80;;;;;;5042069;28;88063;-48
2022/06/13 12:01:15;;;;;;;;;;;19.60;77.90;;;;;;5042210;28;87136;-46
2022/06/13 12:03:46;;;;;;;;;;;19.60;77.80;;;;;;5046120;27;87300;-45
2022/06/13 12:06:14;;;;;;;;;;;19.70;77.80;;;;;;5045025;28;87931;-47
2022/06/13 12:08:39;;;;;;;;;;;19.70;77.80;;;;;;5045459;28;87188;-48
2022/06/13 12:11:05;;;;;;;;;;;19.70;77.60;;;;;;5044241;27;88889;-48
2022/06/13 12:13:32;;;;;;;;;;;19.70;77.60;;;;;;5045543;28;88075;-47
2022/06/13 12:16:07;;;;;;;;;;;19.80;77.60;;;;;;5045571;28;87059;-48
2022/06/13 12:18:40;;;;;;;;;;;19.70;77.70;;;;;;5048109;28;87259;-48
2022/06/13 12:21:21;;;;;;;;;;;19.70;77.60;;;;;;5045319;28;87133;-47
2022/06/13 12:23:46;;;;;;;;;;;19.80;77.70;;;;;;5045477;28;87403;-46
2022/06/13 12:26:16;;;;;;;;;;;19.80;77.60;;;;;;5045084;28;87969;-48
2022/06/13 12:29:01;;;;;;;;;;;19.80;77.60;;;;;;5045762;28;86356;-48
2022/06/13 12:31:27;;;;;;;;;;;19.90;77.40;;;;;;5012329;28;88248;-46
2022/06/13 12:34:12;;;;;;;;;;;19.90;77.40;;;;;;5045006;28;88364;-45
2022/06/13 12:36:47;;;;;;;;;;;19.90;77.40;;;;;;5044647;28;87948;-48
2022/06/13 12:39:12;;;;;;;;;;;19.90;77.40;;;;;;5045133;28;87870;-48
2022/06/13 12:41:41;;;;;;;;;;;20.00;77.30;;;;;;5047484;28;88179;-48
2022/06/13 12:44:09;;;;;;;;;;;20.00;77.30;;;;;;5045045;28;87421;-47
2022/06/13 12:46:51;;;;;;;;;;;20.00;77.30;;;;;;5044663;28;88086;-46
2022/06/13 12:49:16;;;;;;;;;;;20.10;77.30;;;;;;5044746;28;87013;-47
2022/06/13 12:51:42;;;;;;;;;;;20.10;77.30;;;;;;5044328;28;88362;-45
2022/06/13 12:54:16;;;;;;;;;;;20.10;77.10;;;;;;5045064;28;87531;-45
2022/06/13 12:56:53;;;;;;;;;;;20.10;77.10;;;;;;5044965;28;87158;-46
2022/06/13 12:59:18;;;;;;;;;;;20.10;77.00;;;;;;5044694;28;88842;-46
2022/06/13 13:01:46;;;;;;;;;;;20.20;77.00;;;;;;5043928;28;89080;-47
2022/06/13 13:04:18;;;;;;;;;;;20.20;77.10;;;;;;5047489;28;87149;-48
2022/06/13 13:06:59;;;;;;;;;;;20.20;77.00;;;;;;5044114;28;87976;-47
2022/06/13 13:09:40;;;;;;;;;;;20.30;77.00;;;;;;5044458;28;87100;-48
2022/06/13 13:12:08;;;;;;;;;;;20.30;76.90;;;;;;5043983;27;87274;-47
2022/06/13 13:14:37;;;;;;;;;;;20.30;76.80;;;;;;5044185;28;88125;-50
2022/06/13 13:17:03;;;;;;;;;;;20.30;76.80;;;;;;5044239;28;87140;-48
2022/06/13 13:19:41;;;;;;;;;;;20.40;76.80;;;;;;5044919;28;87629;-50
2022/06/13 13:22:14;;;;;;;;;;;20.40;76.60;;;;;;5044244;28;88352;-50
2022/06/13 13:24:49;;;;;;;;;;;20.40;76.70;;;;;;5044419;28;87082;-46
2022/06/13 13:27:15;;;;;;;;;;;20.50;76.50;;;;;;5046394;27;88863;-46
2022/06/13 13:29:47;;;;;;;;;;;20.50;76.60;;;;;;5043844;28;87229;-46
2022/06/13 13:32:13;;;;;;;;;;;20.50;76.60;;;;;;5044454;28;87269;-46
2022/06/13 13:35:02;;;;;;;;;;;20.50;76.50;;;;;;5043865;28;88130;-46
2022/06/13 13:37:32;;;;;;;;;;;20.60;76.50;;;;;;5023799;28;87058;-46
2022/06/13 13:40:01;;;;;;;;;;;20.50;76.50;;;;;;5043933;27;89895;-46
2022/06/13 13:42:45;;;;;;;;;;;20.50;76.50;;;;;;5043400;28;89640;-47
2022/06/13 13:45:25;;;;;;;;;;;20.60;76.50;;;;;;5044452;28;86272;-46
2022/06/13 13:47:52;;;;;;;;;;;20.50;76.50;;;;;;5044313;27;86949;-47
2022/06/13 13:50:20;;;;;;;;;;;20.60;76.50;;;;;;5046156;28;89229;-47
2022/06/13 13:52:49;;;;;;;;;;;20.60;76.40;;;;;;5043120;27;88403;-48
2022/06/13 13:55:19;;;;;;;;;;;20.70;76.30;;;;;;5043435;28;89386;-46
2022/06/13 13:57:47;;;;;;;;;;;20.60;76.50;;;;;;5043773;28;87241;-49
2022/06/13 14:00:27;;;;;;;;;;;20.60;76.40;;;;;;5043801;27;87435;-47
2022/06/13 14:03:11;;;;;;;;;;;20.60;76.40;;;;;;5043540;28;89416;-47
2022/06/13 14:05:36;;;;;;;;;;;20.60;76.50;;;;;;5044102;27;87299;-49
2022/06/13 14:08:12;;;;;;;;;;;20.60;76.40;;;;;;5043985;28;87446;-48
2022/06/13 14:10:42;;;;;;;;;;;20.60;76.50;;;;;;5046852;28;87328;-48
2022/06/13 14:13:17;;;;;;;;;;;20.70;76.40;;;;;;5043646;27;88130;-49
2022/06/13 14:15:48;;;;;;;;;;;20.70;76.30;;;;;;5042776;28;89771;-48
2022/06/13 14:18:24;;;;;;;;;;;20.70;76.60;;;;;;5043223;28;88075;-47
2022/06/13 14:20:51;;;;;;;;;;;20.70;76.30;;;;;;5043670;27;87007;-47
2022/06/13 14:23:19;;;;;;;;;;;20.70;76.40;;;;;;5043166;28;88000;-46
2022/06/13 14:25:45;;;;;;;;;;;20.80;76.40;;;;;;5042348;27;87121;-50
2022/06/13 14:28:17;;;;;;;;;;;20.80;76.40;;;;;;5043135;27;89185;-49
2022/06/13 14:36:50;;;;;;;;;;;20.90;76.10;;;;;;5043101;28;86131;-47
2022/06/13 14:39:22;;;;;;;;;;;20.90;75.80;;;;;;5043245;27;87118;-48
2022/06/13 14:41:49;;;;;;;;;;;21.00;75.60;;;;;;5043448;28;87497;-48
2022/06/13 14:44:26;;;;;;;;;;;20.90;75.60;;;;;;5042095;28;88121;-47
2022/06/13 14:47:01;;;;;;;;;;;20.90;75.60;;;;;;5043397;28;87036;-48
2022/06/13 14:49:42;;;;;;;;;;;21.00;75.30;;;;;;5042993;27;88545;-48
2022/06/13 14:52:22;;;;;;;;;;;21.10;75.30;;;;;;5042616;28;87101;-47
2022/06/13 14:54:48;;;;;;;;;;;21.20;75.40;;;;;;5042942;28;87120;-48
2022/06/13 14:57:26;;;;;;;;;;;21.20;75.40;;;;;;5045676;28;87409;-47